createdAt,value
2019-04-04T00:00:03.231Z,0
2019-04-04T00:01:03.421Z,0
2019-04-04T00:02:03.177Z,0
2019-04-04T00:03:02.961Z,0
2019-04-04T00:04:02.920Z,0
2019-04-04T00:05:05.015Z,0
2019-04-04T00:06:06.014Z,0
2019-04-04T00:07:05.159Z,0
2019-04-04T00:08:05.337Z,0
2019-04-04T00:09:06.558Z,0
2019-04-04T00:10:06.155Z,0
2019-04-04T00:11:04.067Z,0
2019-04-04T00:12:03.095Z,0
2019-04-04T00:13:03.345Z,0
2019-04-04T00:14:02.821Z,0
2019-04-04T00:15:03.098Z,0
2019-04-04T00:16:03.080Z,0
2019-04-04T00:17:03.060Z,0
2019-04-04T00:18:03.647Z,0
2019-04-04T00:19:05.846Z,0
2019-04-04T00:20:05.254Z,0
2019-04-04T00:21:05.106Z,0
2019-04-04T00:22:04.893Z,0
2019-04-04T00:23:03.017Z,0
2019-04-04T00:24:02.995Z,0
2019-04-04T00:25:03.004Z,0
2019-04-04T00:26:03.240Z,0
2019-04-04T00:27:03.020Z,0
2019-04-04T00:28:03.244Z,0
2019-04-04T00:29:05.826Z,0
2019-04-04T00:30:03.001Z,0
2019-04-04T00:31:03.212Z,0
2019-04-04T00:32:03.218Z,0
2019-04-04T00:33:02.948Z,0
2019-04-04T00:34:04.897Z,0
2019-04-04T00:35:04.688Z,0
2019-04-04T00:36:04.978Z,0
2019-04-04T00:37:04.688Z,0
2019-04-04T00:38:02.919Z,0
2019-04-04T00:39:02.903Z,0
2019-04-04T00:40:03.152Z,0
2019-04-04T00:41:02.635Z,0
2019-04-04T00:42:02.928Z,0
2019-04-04T00:43:02.608Z,0
2019-04-04T00:44:02.615Z,0
2019-04-04T00:45:05.103Z,0
2019-04-04T00:46:05.487Z,0
2019-04-04T00:47:04.522Z,0
2019-04-04T00:48:05.301Z,0
2019-04-04T00:49:04.776Z,0
2019-04-04T00:50:05.878Z,0
2019-04-04T00:51:02.559Z,0
2019-04-04T00:52:03.055Z,0
2019-04-04T00:53:02.811Z,0
2019-04-04T00:54:02.786Z,0
2019-04-04T00:55:02.294Z,0
2019-04-04T00:56:03.043Z,0
2019-04-04T00:57:02.849Z,0
2019-04-04T00:58:02.607Z,0
2019-04-04T00:59:03.003Z,0
2019-04-04T01:00:03.516Z,0
2019-04-04T01:01:04.231Z,0
2019-04-04T01:02:06.082Z,0
2019-04-04T01:03:05.034Z,0
2019-04-04T01:04:05.343Z,0
2019-04-04T01:05:04.443Z,0
2019-04-04T01:06:05.342Z,0
2019-04-04T01:07:02.989Z,0
2019-04-04T01:08:02.678Z,0
2019-04-04T01:09:02.674Z,0
2019-04-04T01:10:02.406Z,0
2019-04-04T01:11:02.718Z,0
2019-04-04T01:12:02.417Z,0
2019-04-04T01:13:02.914Z,0
2019-04-04T01:14:04.691Z,0
2019-04-04T01:15:05.412Z,0
2019-04-04T01:16:05.225Z,0
2019-04-04T01:17:06.245Z,0
2019-04-04T01:18:03.960Z,0
2019-04-04T01:19:02.843Z,0
2019-04-04T01:20:02.866Z,0
2019-04-04T01:21:02.573Z,0
2019-04-04T01:22:03.475Z,0
2019-04-04T01:23:05.356Z,0
2019-04-04T01:24:04.883Z,0
2019-04-04T01:25:05.534Z,0
2019-04-04T01:26:05.622Z,0
2019-04-04T01:27:04.081Z,0
2019-04-04T01:28:02.076Z,0
2019-04-04T01:29:05.569Z,0
2019-04-04T01:30:01.776Z,0
2019-04-04T01:31:02.021Z,0
2019-04-04T01:32:02.488Z,0
2019-04-04T01:33:03.642Z,0
2019-04-04T01:34:01.982Z,0
2019-04-04T01:35:02.517Z,0
2019-04-04T01:36:03.521Z,0
2019-04-04T01:37:05.240Z,0
2019-04-04T01:38:04.874Z,0
2019-04-04T01:39:04.745Z,0
2019-04-04T01:40:05.094Z,0
2019-04-04T01:41:06.381Z,0
2019-04-04T01:42:02.419Z,0
2019-04-04T01:43:02.174Z,0
2019-04-04T01:44:16.191Z,0
2019-04-04T01:45:02.395Z,0
2019-04-04T01:46:02.403Z,0
2019-04-04T01:47:02.368Z,0
2019-04-04T01:48:02.115Z,0
2019-04-04T01:49:02.110Z,0
2019-04-04T01:50:02.107Z,0
2019-04-04T01:51:03.161Z,0
2019-04-04T01:52:04.993Z,0
2019-04-04T01:53:05.748Z,0
2019-04-04T01:54:05.249Z,0
2019-04-04T01:55:05.701Z,0
2019-04-04T01:56:01.809Z,0
2019-04-04T01:57:02.302Z,0
2019-04-04T01:58:02.540Z,0
2019-04-04T01:59:02.028Z,0
2019-04-04T02:00:02.254Z,0
2019-04-04T02:01:01.513Z,0
2019-04-04T02:02:02.012Z,0
2019-04-04T02:03:01.736Z,0
2019-04-04T02:04:02.478Z,0
2019-04-04T02:05:04.503Z,0
2019-04-04T02:06:05.105Z,0
2019-04-04T02:07:04.405Z,0
2019-04-04T02:08:04.896Z,0
2019-04-04T02:09:05.117Z,0
2019-04-04T02:10:03.150Z,0
2019-04-04T02:11:05.183Z,0
2019-04-04T02:12:01.410Z,0
2019-04-04T02:13:01.895Z,0
2019-04-04T02:14:01.650Z,0
2019-04-04T02:15:01.897Z,0
2019-04-04T02:16:01.873Z,0
2019-04-04T02:17:01.640Z,0
2019-04-04T02:18:02.519Z,0
2019-04-04T02:19:03.576Z,0
2019-04-04T02:20:04.775Z,0
2019-04-04T02:21:04.903Z,0
2019-04-04T02:22:04.324Z,0
2019-04-04T02:23:03.852Z,0
2019-04-04T02:24:03.970Z,0
2019-04-04T02:25:05.048Z,0
2019-04-04T02:26:04.690Z,0
2019-04-04T02:27:02.276Z,0
2019-04-04T02:28:01.783Z,0
2019-04-04T02:29:01.629Z,0
2019-04-04T02:30:02.311Z,0
2019-04-04T02:31:02.038Z,0
2019-04-04T02:32:03.586Z,0
2019-04-04T02:33:06.762Z,0
2019-04-04T02:34:05.060Z,0
2019-04-04T02:35:02.118Z,0
2019-04-04T02:36:01.987Z,0
2019-04-04T02:37:01.723Z,0
2019-04-04T02:38:04.833Z,0
2019-04-04T02:39:04.144Z,0
2019-04-04T02:40:02.242Z,0
2019-04-04T02:41:01.214Z,0
2019-04-04T02:42:01.919Z,0
2019-04-04T02:43:04.584Z,0
2019-04-04T02:44:04.399Z,0
2019-04-04T02:45:05.006Z,0
2019-04-04T02:46:01.909Z,0
2019-04-04T02:47:01.650Z,0
2019-04-04T02:48:02.220Z,0
2019-04-04T02:49:05.252Z,0
2019-04-04T02:50:05.587Z,0
2019-04-04T02:51:02.187Z,0
2019-04-04T02:52:01.604Z,0
2019-04-04T02:53:02.097Z,0
2019-04-04T02:54:02.019Z,0
2019-04-04T02:55:06.562Z,0
2019-04-04T02:56:04.461Z,0
2019-04-04T02:57:02.089Z,0
2019-04-04T02:58:01.562Z,0
2019-04-04T02:59:02.061Z,0
2019-04-04T03:00:03.681Z,0
2019-04-04T03:01:06.373Z,0
2019-04-04T03:02:04.658Z,0
2019-04-04T03:03:01.771Z,0
2019-04-04T03:04:01.794Z,0
2019-04-04T03:05:01.806Z,0
2019-04-04T03:06:01.791Z,0
2019-04-04T03:07:06.989Z,0
2019-04-04T03:08:05.605Z,0
2019-04-04T03:09:01.727Z,0
2019-04-04T03:10:01.485Z,0
2019-04-04T03:11:01.451Z,0
2019-04-04T03:12:03.880Z,0
2019-04-04T03:13:05.156Z,0
2019-04-04T03:14:05.739Z,0
2019-04-04T03:15:01.673Z,0
2019-04-04T03:16:01.693Z,0
2019-04-04T03:17:05.692Z,0
2019-04-04T03:18:03.819Z,0
2019-04-04T03:19:01.122Z,0
2019-04-04T03:20:01.885Z,0
2019-04-04T03:21:01.385Z,0
2019-04-04T03:22:04.669Z,0
2019-04-04T03:23:05.220Z,0
2019-04-04T03:24:05.784Z,0
2019-04-04T03:25:01.596Z,0
2019-04-04T03:26:01.895Z,0
2019-04-04T03:27:02.821Z,0
2019-04-04T03:28:04.886Z,0
2019-04-04T03:29:04.080Z,0
2019-04-04T03:30:01.767Z,0
2019-04-04T03:31:10.906Z,0
2019-04-04T03:32:01.589Z,0
2019-04-04T03:33:04.554Z,0
2019-04-04T03:34:12.679Z,0
2019-04-04T03:35:01.797Z,0
2019-04-04T03:36:04.623Z,0
2019-04-04T03:37:01.252Z,0
2019-04-04T03:38:01.492Z,0
2019-04-04T03:39:01.256Z,0
2019-04-04T03:40:02.989Z,0
2019-04-04T03:41:04.551Z,0
2019-04-04T03:42:01.743Z,0
2019-04-04T03:43:01.197Z,0
2019-04-04T03:44:01.196Z,0
2019-04-04T03:45:03.448Z,0
2019-04-04T03:46:05.246Z,0
2019-04-04T03:47:01.153Z,0
2019-04-04T03:48:01.668Z,0
2019-04-04T03:49:01.692Z,0
2019-04-04T03:50:05.771Z,0
2019-04-04T03:51:08.275Z,0
2019-04-04T03:52:01.661Z,0
2019-04-04T03:53:01.248Z,0
2019-04-04T03:54:01.375Z,0
2019-04-04T03:55:04.906Z,0
2019-04-04T03:56:04.618Z,0
2019-04-04T03:57:01.357Z,0
2019-04-04T03:58:04.753Z,0
2019-04-04T03:59:04.726Z,0
2019-04-04T04:00:05.493Z,0
2019-04-04T04:01:01.309Z,0
2019-04-04T04:02:01.424Z,0
2019-04-04T04:03:01.078Z,0
2019-04-04T04:04:03.899Z,0
2019-04-04T04:05:05.247Z,0
2019-04-04T04:06:01.054Z,0
2019-04-04T04:07:01.567Z,0
2019-04-04T04:08:01.539Z,0
2019-04-04T04:09:04.197Z,0
2019-04-04T04:10:06.415Z,0
2019-04-04T04:11:04.654Z,0
2019-04-04T04:12:01.493Z,0
2019-04-04T04:13:01.227Z,0
2019-04-04T04:14:01.213Z,0
2019-04-04T04:15:04.558Z,0
2019-04-04T04:16:05.153Z,0
2019-04-04T04:17:00.945Z,0
2019-04-04T04:18:01.462Z,0
2019-04-04T04:19:04.010Z,0
2019-04-04T04:20:06.131Z,0
2019-04-04T04:21:01.394Z,0
2019-04-04T04:22:00.914Z,0
2019-04-04T04:23:00.774Z,0
2019-04-04T04:24:05.622Z,0
2019-04-04T04:25:04.701Z,0
2019-04-04T04:26:00.916Z,0
2019-04-04T04:27:01.093Z,0
2019-04-04T04:28:05.391Z,0
2019-04-04T04:29:02.892Z,0
2019-04-04T04:30:07.114Z,0
2019-04-04T04:31:03.020Z,0
2019-04-04T04:32:01.295Z,0
2019-04-04T04:33:05.316Z,0
2019-04-04T04:34:05.813Z,0
2019-04-04T04:35:01.089Z,0
2019-04-04T04:36:01.267Z,0
2019-04-04T04:37:01.027Z,0
2019-04-04T04:38:03.102Z,0
2019-04-04T04:39:06.240Z,0
2019-04-04T04:40:01.312Z,0
2019-04-04T04:41:00.776Z,0
2019-04-04T04:42:03.823Z,0
2019-04-04T04:43:04.826Z,0
2019-04-04T04:44:02.678Z,0
2019-04-04T04:45:00.951Z,0
2019-04-04T04:46:00.974Z,0
2019-04-04T04:47:00.711Z,0
2019-04-04T04:48:05.301Z,0
2019-04-04T04:49:05.002Z,0
2019-04-04T04:50:08.476Z,0
2019-04-04T04:51:00.666Z,0
2019-04-04T04:52:00.669Z,0
2019-04-04T04:53:01.166Z,0
2019-04-04T04:54:00.891Z,0
2019-04-04T04:55:03.727Z,0
2019-04-04T04:56:04.447Z,0
2019-04-04T04:57:03.345Z,0
2019-04-04T04:58:03.501Z,0
2019-04-04T04:59:01.959Z,0
2019-04-04T05:00:01.065Z,0
2019-04-04T05:01:01.973Z,0
2019-04-04T05:02:00.589Z,0
2019-04-04T05:03:03.229Z,0
2019-04-04T05:04:05.002Z,0
2019-04-04T05:05:03.928Z,0
2019-04-04T05:06:02.608Z,0
2019-04-04T05:07:00.518Z,0
2019-04-04T05:08:01.965Z,0
2019-04-04T05:09:00.511Z,0
2019-04-04T05:10:00.730Z,0
2019-04-04T05:10:59.998Z,0
2019-04-04T05:12:00.744Z,0
2019-04-04T05:13:02.888Z,0
2019-04-04T05:14:02.884Z,0
2019-04-04T05:15:03.510Z,0
2019-04-04T05:16:02.022Z,0
2019-04-04T05:17:00.922Z,0
2019-04-04T05:18:00.426Z,0
2019-04-04T05:19:00.920Z,0
2019-04-04T05:20:00.666Z,5
2019-04-04T05:21:04.830Z,5
2019-04-04T05:22:00.400Z,5
2019-04-04T05:23:00.915Z,5
2019-04-04T05:24:00.617Z,5
2019-04-04T05:25:16.554Z,5
2019-04-04T05:26:09.515Z,5
2019-04-04T05:27:00.614Z,10
2019-04-04T05:28:00.843Z,10
2019-04-04T05:29:03.777Z,10
2019-04-04T05:30:00.102Z,10
2019-04-04T05:31:00.950Z,10
2019-04-04T05:32:00.657Z,10
2019-04-04T05:33:03.953Z,10
2019-04-04T05:34:03.695Z,10
2019-04-04T05:35:03.448Z,10
2019-04-04T05:36:00.837Z,10
2019-04-04T05:37:00.548Z,10
2019-04-04T05:38:00.546Z,10
2019-04-04T05:39:00.485Z,10
2019-04-04T05:40:02.594Z,10
2019-04-04T05:41:02.671Z,10
2019-04-04T05:42:02.448Z,15
2019-04-04T05:43:00.218Z,15
2019-04-04T05:44:00.219Z,10
2019-04-04T05:45:00.783Z,10
2019-04-04T05:46:00.442Z,15
2019-04-04T05:47:01.092Z,15
2019-04-04T05:48:04.864Z,15
2019-04-04T05:49:07.669Z,15
2019-04-04T05:50:00.151Z,15
2019-04-04T05:51:00.663Z,10
2019-04-04T05:52:00.398Z,10
2019-04-04T05:52:59.937Z,10
2019-04-04T05:54:00.628Z,10
2019-04-04T05:55:00.378Z,10
2019-04-04T05:56:00.638Z,10
2019-04-04T05:57:03.058Z,10
2019-04-04T05:58:00.716Z,5
2019-04-04T05:59:02.655Z,5
2019-04-04T06:00:02.669Z,5
2019-04-04T06:01:04.884Z,5
2019-04-04T06:02:00.572Z,5
2019-04-04T06:03:00.578Z,5
2019-04-04T06:04:00.334Z,5
2019-04-04T06:05:04.253Z,5
2019-04-04T06:06:03.554Z,5
2019-04-04T06:07:06.448Z,5
2019-04-04T06:08:00.257Z,5
2019-04-04T06:09:00.287Z,5
2019-04-04T06:10:00.485Z,5
2019-04-04T06:11:00.466Z,5
2019-04-04T06:12:03.235Z,5
2019-04-04T06:13:02.948Z,5
2019-04-04T06:14:03.381Z,5
2019-04-04T06:15:02.900Z,5
2019-04-04T06:16:01.984Z,5
2019-04-04T06:16:59.936Z,5
2019-04-04T06:18:00.424Z,10
2019-04-04T06:19:00.395Z,10
2019-04-04T06:19:59.886Z,10
2019-04-04T06:21:00.139Z,10
2019-04-04T06:22:00.120Z,10
2019-04-04T06:23:01.353Z,15
2019-04-04T06:24:02.445Z,15
2019-04-04T06:25:04.017Z,10
2019-04-04T06:26:00.108Z,10
2019-04-04T06:26:59.872Z,5
2019-04-04T06:27:59.824Z,10
2019-04-04T06:28:59.843Z,10
2019-04-04T06:30:00.069Z,10
2019-04-04T06:31:05.339Z,10
2019-04-04T06:32:02.509Z,10
2019-04-04T06:33:03.771Z,10
2019-04-04T06:34:00.004Z,10
2019-04-04T06:35:01.496Z,5
2019-04-04T06:35:59.521Z,5
2019-04-04T06:37:00.267Z,10
2019-04-04T06:38:01.455Z,10
2019-04-04T06:39:03.204Z,15
2019-04-04T06:40:04.140Z,15
2019-04-04T06:41:03.003Z,15
2019-04-04T06:42:01.056Z,15
2019-04-04T06:42:59.734Z,15
2019-04-04T06:44:00.029Z,15
2019-04-04T06:45:01.532Z,15
2019-04-04T06:45:59.939Z,15
2019-04-04T06:47:04.430Z,15
2019-04-04T06:48:02.143Z,20
2019-04-04T06:48:59.935Z,20
2019-04-04T06:50:00.135Z,25
2019-04-04T06:50:59.883Z,25
2019-04-04T06:52:00.134Z,30
2019-04-04T06:53:03.356Z,35
2019-04-04T06:54:04.170Z,40
2019-04-04T06:55:02.718Z,40
2019-04-04T06:56:02.500Z,40
2019-04-04T06:57:03.846Z,40
2019-04-04T06:58:00.450Z,35
2019-04-04T06:58:59.803Z,30
2019-04-04T07:00:00.834Z,30
2019-04-04T07:01:00.054Z,30
2019-04-04T07:02:01.369Z,25
2019-04-04T07:03:02.408Z,30
2019-04-04T07:04:04.351Z,30
2019-04-04T07:04:59.746Z,30
2019-04-04T07:05:59.778Z,30
2019-04-04T07:07:01.495Z,30
2019-04-04T07:07:59.511Z,30
2019-04-04T07:08:59.978Z,35
2019-04-04T07:10:00.545Z,35
2019-04-04T07:11:25.145Z,35
2019-04-04T07:11:59.726Z,35
2019-04-04T07:13:41.617Z,40
2019-04-04T07:14:02.054Z,40
2019-04-04T07:14:59.923Z,35
2019-04-04T07:16:15.184Z,30
2019-04-04T07:17:00.362Z,30
2019-04-04T07:17:59.211Z,25
2019-04-04T07:18:59.650Z,25
2019-04-04T07:19:59.422Z,35
2019-04-04T07:20:59.389Z,40
2019-04-04T07:22:01.148Z,40
2019-04-04T07:23:02.577Z,45
2019-04-04T07:24:03.929Z,45
2019-04-04T07:25:01.043Z,50
2019-04-04T07:26:02.729Z,50
2019-04-04T07:26:59.586Z,55
2019-04-04T07:27:59.583Z,55
2019-04-04T07:29:03.339Z,50
2019-04-04T07:30:01.169Z,40
2019-04-04T07:31:04.719Z,30
2019-04-04T07:31:59.297Z,25
2019-04-04T07:32:59.541Z,20
2019-04-04T07:33:59.292Z,20
2019-04-04T07:34:59.537Z,25
2019-04-04T07:35:59.293Z,30
2019-04-04T07:37:00.530Z,45
2019-04-04T07:38:04.601Z,55
2019-04-04T07:39:02.517Z,60
2019-04-04T07:40:03.104Z,60
2019-04-04T07:40:59.713Z,60
2019-04-04T07:41:59.223Z,50
2019-04-04T07:42:59.212Z,45
2019-04-04T07:44:03.442Z,40
2019-04-04T07:45:01.621Z,35
2019-04-04T07:46:19.218Z,35
2019-04-04T07:46:59.685Z,40
2019-04-04T07:47:59.418Z,50
2019-04-04T07:49:01.407Z,60
2019-04-04T07:50:01.642Z,65
2019-04-04T07:51:03.227Z,65
2019-04-04T07:52:00.088Z,60
2019-04-04T07:52:58.882Z,65
2019-04-04T07:53:59.377Z,65
2019-04-04T07:54:59.129Z,60
2019-04-04T07:55:59.184Z,60
2019-04-04T07:56:59.107Z,60
2019-04-04T07:58:00.610Z,60
2019-04-04T07:58:59.085Z,60
2019-04-04T07:59:59.071Z,55
2019-04-04T08:00:59.078Z,55
2019-04-04T08:02:00.649Z,60
2019-04-04T08:02:59.046Z,60
2019-04-04T08:03:59.542Z,60
2019-04-04T08:04:59.313Z,60
2019-04-04T08:05:59.313Z,60
2019-04-04T08:06:59.009Z,55
2019-04-04T08:07:59.253Z,55
2019-04-04T08:08:59.009Z,60
2019-04-04T08:09:59.251Z,60
2019-04-04T08:10:58.987Z,60
2019-04-04T08:11:58.752Z,60
2019-04-04T08:12:58.967Z,65
2019-04-04T08:13:59.037Z,60
2019-04-04T08:14:59.444Z,60
2019-04-04T08:15:59.447Z,65
2019-04-04T08:16:58.965Z,75
2019-04-04T08:17:59.450Z,75
2019-04-04T08:18:59.191Z,70
2019-04-04T08:20:08.997Z,70
2019-04-04T08:20:58.935Z,70
2019-04-04T08:21:58.791Z,75
2019-04-04T08:22:58.694Z,75
2019-04-04T08:23:58.910Z,75
2019-04-04T08:24:59.216Z,80
2019-04-04T08:25:59.156Z,90
2019-04-04T08:26:59.118Z,85
2019-04-04T08:27:59.142Z,90
2019-04-04T08:28:58.850Z,90
2019-04-04T08:29:59.336Z,85
2019-04-04T08:30:59.088Z,85
2019-04-04T08:31:59.084Z,90
2019-04-04T08:32:58.827Z,100
2019-04-04T08:33:59.061Z,105
2019-04-04T08:34:58.811Z,110
2019-04-04T08:36:10.532Z,110
2019-04-04T08:36:59.041Z,110
2019-04-04T08:37:59.048Z,105
2019-04-04T08:38:59.281Z,105
2019-04-04T08:39:59.270Z,110
2019-04-04T08:40:59.003Z,120
2019-04-04T08:42:01.387Z,115
2019-04-04T08:42:58.779Z,110
2019-04-04T08:43:58.746Z,110
2019-04-04T08:44:58.741Z,110
2019-04-04T08:45:58.733Z,110
2019-04-04T08:47:00.545Z,110
2019-04-04T08:47:59.376Z,110
2019-04-04T08:48:59.215Z,115
2019-04-04T08:49:58.489Z,110
2019-04-04T08:50:58.707Z,105
2019-04-04T08:51:59.202Z,110
2019-04-04T08:52:58.956Z,115
2019-04-04T08:53:58.922Z,135
2019-04-04T08:54:58.665Z,155
2019-04-04T08:55:58.411Z,155
2019-04-04T08:56:59.162Z,145
2019-04-04T08:57:58.634Z,150
2019-04-04T08:59:01.369Z,160
2019-04-04T08:59:58.646Z,150
2019-04-04T09:00:58.653Z,125
2019-04-04T09:01:59.122Z,130
2019-04-04T09:02:58.355Z,140
2019-04-04T09:03:58.963Z,150
2019-04-04T09:05:10.760Z,150
2019-04-04T09:05:58.324Z,150
2019-04-04T09:06:58.575Z,150
2019-04-04T09:07:59.081Z,150
2019-04-04T09:08:58.325Z,150
2019-04-04T09:09:59.341Z,150
2019-04-04T09:10:58.548Z,135
2019-04-04T09:11:58.786Z,120
2019-04-04T09:12:58.559Z,120
2019-04-04T09:13:58.295Z,120
2019-04-04T09:14:59.052Z,105
2019-04-04T09:15:58.505Z,100
2019-04-04T09:16:58.534Z,90
2019-04-04T09:17:59.324Z,85
2019-04-04T09:18:58.327Z,85
2019-04-04T09:19:58.222Z,75
2019-04-04T09:20:58.481Z,65
2019-04-04T09:21:58.971Z,80
2019-04-04T09:22:59.296Z,90
2019-04-04T09:24:00.650Z,95
2019-04-04T09:24:58.723Z,105
2019-04-04T09:26:12.083Z,125
2019-04-04T09:26:58.915Z,145
2019-04-04T09:27:58.181Z,145
2019-04-04T09:28:58.185Z,130
2019-04-04T09:29:58.658Z,105
2019-04-04T09:30:58.153Z,105
2019-04-04T09:31:58.400Z,110
2019-04-04T09:32:58.648Z,105
2019-04-04T09:33:58.627Z,100
2019-04-04T09:34:58.378Z,100
2019-04-04T09:35:58.376Z,95
2019-04-04T09:36:58.667Z,95
2019-04-04T09:37:58.701Z,95
2019-04-04T09:38:58.361Z,95
2019-04-04T09:39:58.821Z,100
2019-04-04T09:40:58.580Z,105
2019-04-04T09:41:58.337Z,110
2019-04-04T09:42:58.348Z,110
2019-04-04T09:43:58.336Z,110
2019-04-04T09:44:58.406Z,110
2019-04-04T09:45:58.560Z,110
2019-04-04T09:47:11.996Z,110
2019-04-04T09:47:58.032Z,115
2019-04-04T09:48:58.776Z,125
2019-04-04T09:49:58.766Z,110
2019-04-04T09:50:58.438Z,105
2019-04-04T09:51:58.068Z,110
2019-04-04T09:52:58.525Z,110
2019-04-04T09:54:02.524Z,110
2019-04-04T09:54:57.985Z,110
2019-04-04T09:55:58.216Z,105
2019-04-04T09:56:58.240Z,105
2019-04-04T09:57:57.987Z,110
2019-04-04T09:59:01.976Z,110
2019-04-04T09:59:57.703Z,120
2019-04-04T10:00:58.713Z,110
2019-04-04T10:01:58.705Z,95
2019-04-04T10:02:58.172Z,85
2019-04-04T10:03:58.445Z,85
2019-04-04T10:04:57.916Z,85
2019-04-04T10:05:58.168Z,85
2019-04-04T10:06:58.402Z,90
2019-04-04T10:07:58.393Z,90
2019-04-04T10:08:58.372Z,90
2019-04-04T10:09:58.132Z,90
2019-04-04T10:10:58.120Z,90
2019-04-04T10:11:57.890Z,90
2019-04-04T10:12:58.381Z,90
2019-04-04T10:13:58.136Z,90
2019-04-04T10:14:58.340Z,95
2019-04-04T10:15:58.349Z,95
2019-04-04T10:16:58.339Z,100
2019-04-04T10:17:58.597Z,100
2019-04-04T10:18:58.078Z,100
2019-04-04T10:19:58.568Z,100
2019-04-04T10:21:10.768Z,95
2019-04-04T10:21:57.801Z,90
2019-04-04T10:22:58.292Z,85
2019-04-04T10:23:58.033Z,80
2019-04-04T10:24:58.523Z,75
2019-04-04T10:25:58.690Z,70
2019-04-04T10:26:58.502Z,75
2019-04-04T10:27:58.517Z,85
2019-04-04T10:28:58.247Z,90
2019-04-04T10:29:58.483Z,90
2019-04-04T10:30:58.247Z,85
2019-04-04T10:31:58.220Z,85
2019-04-04T10:32:58.205Z,80
2019-04-04T10:33:58.197Z,85
2019-04-04T10:34:58.201Z,85
2019-04-04T10:35:57.946Z,85
2019-04-04T10:36:58.182Z,80
2019-04-04T10:37:57.931Z,80
2019-04-04T10:38:58.423Z,80
2019-04-04T10:39:58.149Z,85
2019-04-04T10:40:58.178Z,95
2019-04-04T10:41:58.150Z,105
2019-04-04T10:42:58.378Z,110
2019-04-04T10:43:58.143Z,110
2019-04-04T10:44:57.878Z,115
2019-04-04T10:45:58.137Z,110
2019-04-04T10:46:57.668Z,100
2019-04-04T10:47:58.115Z,85
2019-04-04T10:48:58.389Z,85
2019-04-04T10:50:00.912Z,95
2019-04-04T10:50:58.084Z,105
2019-04-04T10:51:58.080Z,110
2019-04-04T10:52:58.320Z,115
2019-04-04T10:53:58.101Z,115
2019-04-04T10:55:01.317Z,110
2019-04-04T10:55:57.813Z,95
2019-04-04T10:56:57.791Z,95
2019-04-04T10:57:57.791Z,95
2019-04-04T10:58:57.529Z,85
2019-04-04T11:00:03.164Z,80
2019-04-04T11:00:57.778Z,85
2019-04-04T11:02:01.839Z,100
2019-04-04T11:02:58.004Z,110
2019-04-04T11:03:58.337Z,115
2019-04-04T11:04:57.989Z,130
2019-04-04T11:05:57.779Z,125
2019-04-04T11:06:57.963Z,125
2019-04-04T11:07:59.383Z,125
2019-04-04T11:08:58.209Z,130
2019-04-04T11:09:58.203Z,130
2019-04-04T11:11:01.067Z,130
2019-04-04T11:11:58.187Z,125
2019-04-04T11:12:57.931Z,125
2019-04-04T11:13:57.936Z,130
2019-04-04T11:14:57.422Z,125
2019-04-04T11:15:57.439Z,105
2019-04-04T11:16:57.674Z,110
2019-04-04T11:17:57.672Z,110
2019-04-04T11:18:58.233Z,125
2019-04-04T11:19:57.423Z,145
2019-04-04T11:20:57.877Z,140
2019-04-04T11:21:57.868Z,155
2019-04-04T11:22:57.620Z,165
2019-04-04T11:23:57.652Z,165
2019-04-04T11:24:57.591Z,165
2019-04-04T11:25:57.848Z,185
2019-04-04T11:26:57.848Z,185
2019-04-04T11:27:57.601Z,190
2019-04-04T11:28:57.603Z,190
2019-04-04T11:29:57.892Z,180
2019-04-04T11:30:58.062Z,155
2019-04-04T11:31:58.063Z,150
2019-04-04T11:32:58.577Z,150
2019-04-04T11:33:58.037Z,150
2019-04-04T11:35:02.472Z,140
2019-04-04T11:35:57.792Z,115
2019-04-04T11:36:57.800Z,105
2019-04-04T11:37:57.792Z,110
2019-04-04T11:38:57.773Z,105
2019-04-04T11:40:03.622Z,95
2019-04-04T11:40:57.771Z,90
2019-04-04T11:41:57.494Z,85
2019-04-04T11:42:58.002Z,90
2019-04-04T11:43:57.999Z,100
2019-04-04T11:44:57.245Z,110
2019-04-04T11:45:57.471Z,115
2019-04-04T11:46:57.233Z,120
2019-04-04T11:47:57.952Z,130
2019-04-04T11:48:57.698Z,140
2019-04-04T11:49:56.938Z,150
2019-04-04T11:50:57.198Z,165
2019-04-04T11:51:57.411Z,160
2019-04-04T11:52:57.658Z,155
2019-04-04T11:53:57.935Z,145
2019-04-04T11:54:57.680Z,145
2019-04-04T11:55:57.663Z,150
2019-04-04T11:56:57.642Z,125
2019-04-04T11:57:57.879Z,125
2019-04-04T11:58:57.522Z,115
2019-04-04T11:59:57.936Z,125
2019-04-04T12:00:57.376Z,165
2019-04-04T12:01:57.598Z,165
2019-04-04T12:02:57.900Z,140
2019-04-04T12:03:57.603Z,120
2019-04-04T12:05:00.203Z,115
2019-04-04T12:05:57.857Z,95
2019-04-04T12:06:57.827Z,85
2019-04-04T12:07:57.080Z,80
2019-04-04T12:08:57.827Z,85
2019-04-04T12:10:09.201Z,80
2019-04-04T12:10:57.353Z,75
2019-04-04T12:11:57.328Z,70
2019-04-04T12:13:00.811Z,70
2019-04-04T12:13:59.915Z,80
2019-04-04T12:14:57.781Z,85
2019-04-04T12:15:57.532Z,90
2019-04-04T12:16:57.025Z,90
2019-04-04T12:17:57.264Z,105
2019-04-04T12:18:57.501Z,110
2019-04-04T12:19:57.262Z,100
2019-04-04T12:20:56.990Z,85
2019-04-04T12:21:57.721Z,70
2019-04-04T12:22:57.007Z,65
2019-04-04T12:24:00.676Z,75
2019-04-04T12:24:58.014Z,90
2019-04-04T12:25:57.452Z,90
2019-04-04T12:26:57.694Z,90
2019-04-04T12:27:57.683Z,90
2019-04-04T12:28:57.670Z,85
2019-04-04T12:29:57.755Z,80
2019-04-04T12:30:57.433Z,80
2019-04-04T12:31:56.901Z,75
2019-04-04T12:32:57.394Z,70
2019-04-04T12:33:57.392Z,75
2019-04-04T12:34:57.391Z,80
2019-04-04T12:35:59.608Z,75
2019-04-04T12:36:57.140Z,80
2019-04-04T12:37:57.125Z,90
2019-04-04T12:38:57.368Z,95
2019-04-04T12:39:57.372Z,95
2019-04-04T12:40:57.607Z,90
2019-04-04T12:41:57.589Z,90
2019-04-04T12:42:56.830Z,85
2019-04-04T12:43:57.569Z,85
2019-04-04T12:44:57.597Z,85
2019-04-04T12:45:57.629Z,85
2019-04-04T12:46:57.554Z,85
2019-04-04T12:47:57.093Z,90
2019-04-04T12:48:57.542Z,105
2019-04-04T12:49:57.534Z,110
2019-04-04T12:50:58.141Z,105
2019-04-04T12:51:57.020Z,100
2019-04-04T12:52:57.293Z,95
2019-04-04T12:53:57.320Z,95
2019-04-04T12:54:57.550Z,95
2019-04-04T12:55:59.062Z,95
2019-04-04T12:56:57.484Z,105
2019-04-04T12:57:56.980Z,115
2019-04-04T12:58:56.981Z,110
2019-04-04T12:59:57.227Z,105
2019-04-04T13:00:56.970Z,110
2019-04-04T13:01:56.967Z,110
2019-04-04T13:02:57.457Z,110
2019-04-04T13:03:57.480Z,110
2019-04-04T13:05:02.533Z,110
2019-04-04T13:05:57.178Z,100
2019-04-04T13:06:57.176Z,110
2019-04-04T13:07:57.174Z,110
2019-04-04T13:08:56.899Z,105
2019-04-04T13:09:56.887Z,105
2019-04-04T13:10:57.154Z,105
2019-04-04T13:11:57.132Z,105
2019-04-04T13:12:56.913Z,85
2019-04-04T13:13:57.132Z,75
2019-04-04T13:14:57.107Z,75
2019-04-04T13:15:57.112Z,75
2019-04-04T13:16:57.335Z,80
2019-04-04T13:17:57.091Z,80
2019-04-04T13:18:57.084Z,90
2019-04-04T13:19:57.078Z,95
2019-04-04T13:20:57.075Z,105
2019-04-04T13:21:57.071Z,115
2019-04-04T13:22:56.822Z,115
2019-04-04T13:23:56.580Z,105
2019-04-04T13:24:56.856Z,100
2019-04-04T13:25:56.807Z,105
2019-04-04T13:26:57.278Z,110
2019-04-04T13:27:57.040Z,110
2019-04-04T13:28:57.086Z,115
2019-04-04T13:29:57.021Z,120
2019-04-04T13:30:57.028Z,105
2019-04-04T13:31:57.020Z,85
2019-04-04T13:32:56.520Z,80
2019-04-04T13:33:57.225Z,80
2019-04-04T13:35:12.127Z,80
2019-04-04T13:35:56.749Z,75
2019-04-04T13:36:57.197Z,70
2019-04-04T13:37:57.041Z,75
2019-04-04T13:38:59.827Z,80
2019-04-04T13:39:56.703Z,80
2019-04-04T13:40:56.455Z,80
2019-04-04T13:41:56.684Z,70
2019-04-04T13:43:00.202Z,60
2019-04-04T13:44:00.427Z,60
2019-04-04T13:44:59.430Z,65
2019-04-04T13:45:56.900Z,65
2019-04-04T13:46:56.906Z,70
2019-04-04T13:47:56.654Z,75
2019-04-04T13:48:57.160Z,80
2019-04-04T13:49:56.867Z,95
2019-04-04T13:50:56.371Z,100
2019-04-04T13:51:59.842Z,105
2019-04-04T13:52:56.588Z,100
2019-04-04T13:53:57.094Z,90
2019-04-04T13:55:00.604Z,65
2019-04-04T13:55:59.080Z,60
2019-04-04T13:56:56.595Z,55
2019-04-04T13:57:57.539Z,55
2019-04-04T13:59:00.911Z,60
2019-04-04T13:59:56.798Z,65
2019-04-04T14:00:56.545Z,70
2019-04-04T14:01:56.369Z,80
2019-04-04T14:02:56.858Z,90
2019-04-04T14:03:57.019Z,95
2019-04-04T14:05:14.266Z,90
2019-04-04T14:05:57.041Z,85
2019-04-04T14:06:56.731Z,85
2019-04-04T14:07:56.298Z,95
2019-04-04T14:08:56.225Z,95
2019-04-04T14:09:56.728Z,90
2019-04-04T14:11:07.070Z,80
2019-04-04T14:11:56.689Z,70
2019-04-04T14:12:57.007Z,60
2019-04-04T14:14:01.262Z,60
2019-04-04T14:14:56.964Z,60
2019-04-04T14:15:56.694Z,60
2019-04-04T14:16:56.708Z,60
2019-04-04T14:17:56.539Z,60
2019-04-04T14:18:56.645Z,60
2019-04-04T14:19:55.896Z,60
2019-04-04T14:21:08.270Z,60